sensor_id;sensor_type;location;lat;lon;timestamp;P1;durP1;ratioP1;P2;durP2;ratioP2
9912;SDS011;41380;52.548;13.344;2022-08-21T00:01:12;9.40;;;7.93;;
9912;SDS011;41380;52.548;13.344;2022-08-21T00:03:42;9.85;;;7.72;;
9912;SDS011;41380;52.548;13.344;2022-08-21T00:06:10;8.55;;;7.68;;
9912;SDS011;41380;52.548;13.344;2022-08-21T00:08:37;8.18;;;7.38;;
9912;SDS011;41380;52.548;13.344;2022-08-21T00:11:04;8.38;;;7.57;;
9912;SDS011;41380;52.548;13.344;2022-08-21T00:13:33;11.40;;;7.75;;
9912;SDS011;41380;52.548;13.344;2022-08-21T00:16:01;8.60;;;7.80;;
9912;SDS011;41380;52.548;13.344;2022-08-21T00:18:29;8.63;;;7.30;;
9912;SDS011;41380;52.548;13.344;2022-08-21T00:20:56;8.10;;;7.28;;
9912;SDS011;41380;52.548;13.344;2022-08-21T00:23:24;7.78;;;6.95;;
9912;SDS011;41380;52.548;13.344;2022-08-21T00:25:51;8.40;;;7.60;;
9912;SDS011;41380;52.548;13.344;2022-08-21T00:28:18;10.48;;;9.48;;
9912;SDS011;41380;52.548;13.344;2022-08-21T00:30:46;8.48;;;7.65;;
9912;SDS011;41380;52.548;13.344;2022-08-21T00:33:13;8.57;;;7.75;;
9912;SDS011;41380;52.548;13.344;2022-08-21T00:35:40;8.50;;;7.38;;
9912;SDS011;41380;52.548;13.344;2022-08-21T00:38:09;9.40;;;8.45;;
9912;SDS011;41380;52.548;13.344;2022-08-21T00:40:38;9.68;;;8.55;;
9912;SDS011;41380;52.548;13.344;2022-08-21T00:43:08;8.25;;;7.45;;
9912;SDS011;41380;52.548;13.344;2022-08-21T00:45:36;8.30;;;7.55;;
9912;SDS011;41380;52.548;13.344;2022-08-21T00:48:05;8.85;;;8.13;;
9912;SDS011;41380;52.548;13.344;2022-08-21T00:50:33;8.85;;;7.97;;
9912;SDS011;41380;52.548;13.344;2022-08-21T00:53:03;9.75;;;8.40;;
9912;SDS011;41380;52.548;13.344;2022-08-21T00:55:34;8.32;;;7.63;;
9912;SDS011;41380;52.548;13.344;2022-08-21T00:58:03;9.43;;;8.50;;
9912;SDS011;41380;52.548;13.344;2022-08-21T01:00:35;8.52;;;7.65;;
9912;SDS011;41380;52.548;13.344;2022-08-21T01:03:08;9.40;;;8.45;;
9912;SDS011;41380;52.548;13.344;2022-08-21T01:05:37;8.65;;;7.95;;
9912;SDS011;41380;52.548;13.344;2022-08-21T01:08:05;9.60;;;8.57;;
9912;SDS011;41380;52.548;13.344;2022-08-21T01:10:33;12.27;;;9.05;;
9912;SDS011;41380;52.548;13.344;2022-08-21T01:13:02;9.77;;;8.82;;
9912;SDS011;41380;52.548;13.344;2022-08-21T01:15:34;11.73;;;9.27;;
9912;SDS011;41380;52.548;13.344;2022-08-21T01:18:03;10.18;;;9.18;;
9912;SDS011;41380;52.548;13.344;2022-08-21T01:20:33;9.90;;;8.90;;
9912;SDS011;41380;52.548;13.344;2022-08-21T01:23:04;9.07;;;8.13;;
9912;SDS011;41380;52.548;13.344;2022-08-21T01:25:32;10.73;;;9.52;;
9912;SDS011;41380;52.548;13.344;2022-08-21T01:28:02;11.02;;;9.77;;
9912;SDS011;41380;52.548;13.344;2022-08-21T01:30:36;11.95;;;8.85;;
9912;SDS011;41380;52.548;13.344;2022-08-21T01:33:03;10.88;;;9.68;;
9912;SDS011;41380;52.548;13.344;2022-08-21T01:35:30;10.73;;;9.23;;
9912;SDS011;41380;52.548;13.344;2022-08-21T01:37:57;12.55;;;8.95;;
9912;SDS011;41380;52.548;13.344;2022-08-21T01:40:26;9.73;;;8.73;;
9912;SDS011;41380;52.548;13.344;2022-08-21T01:42:53;8.95;;;7.60;;
9912;SDS011;41380;52.548;13.344;2022-08-21T01:45:20;9.75;;;7.55;;
9912;SDS011;41380;52.548;13.344;2022-08-21T01:47:48;8.98;;;7.10;;
9912;SDS011;41380;52.548;13.344;2022-08-21T01:50:17;8.90;;;7.10;;
9912;SDS011;41380;52.548;13.344;2022-08-21T01:52:46;8.73;;;7.40;;
9912;SDS011;41380;52.548;13.344;2022-08-21T01:55:14;7.53;;;6.65;;
9912;SDS011;41380;52.548;13.344;2022-08-21T01:57:44;7.45;;;6.60;;
9912;SDS011;41380;52.548;13.344;2022-08-21T02:00:14;7.93;;;6.65;;
9912;SDS011;41380;52.548;13.344;2022-08-21T02:02:43;7.60;;;6.90;;
9912;SDS011;41380;52.548;13.344;2022-08-21T02:05:11;8.20;;;6.30;;
9912;SDS011;41380;52.548;13.344;2022-08-21T02:07:39;7.75;;;6.47;;
9912;SDS011;41380;52.548;13.344;2022-08-21T02:10:07;7.07;;;6.38;;
9912;SDS011;41380;52.548;13.344;2022-08-21T02:12:36;7.20;;;5.88;;
9912;SDS011;41380;52.548;13.344;2022-08-21T02:15:05;7.07;;;6.05;;
9912;SDS011;41380;52.548;13.344;2022-08-21T02:17:37;9.30;;;6.07;;
9912;SDS011;41380;52.548;13.344;2022-08-21T02:20:06;8.02;;;5.60;;
9912;SDS011;41380;52.548;13.344;2022-08-21T02:22:34;6.53;;;5.90;;
9912;SDS011;41380;52.548;13.344;2022-08-21T02:25:01;7.90;;;6.03;;
9912;SDS011;41380;52.548;13.344;2022-08-21T02:27:28;6.30;;;5.28;;
9912;SDS011;41380;52.548;13.344;2022-08-21T02:29:56;6.47;;;5.88;;
9912;SDS011;41380;52.548;13.344;2022-08-21T02:32:24;7.32;;;5.40;;
9912;SDS011;41380;52.548;13.344;2022-08-21T02:34:51;7.50;;;5.85;;
9912;SDS011;41380;52.548;13.344;2022-08-21T02:37:18;6.05;;;5.22;;
9912;SDS011;41380;52.548;13.344;2022-08-21T02:39:45;7.30;;;5.65;;
9912;SDS011;41380;52.548;13.344;2022-08-21T02:42:13;6.82;;;5.75;;
9912;SDS011;41380;52.548;13.344;2022-08-21T02:44:39;7.00;;;5.88;;
9912;SDS011;41380;52.548;13.344;2022-08-21T02:47:06;7.13;;;5.38;;
9912;SDS011;41380;52.548;13.344;2022-08-21T02:49:35;9.63;;;6.28;;
9912;SDS011;41380;52.548;13.344;2022-08-21T02:52:02;7.32;;;6.05;;
9912;SDS011;41380;52.548;13.344;2022-08-21T02:54:31;7.63;;;5.78;;
9912;SDS011;41380;52.548;13.344;2022-08-21T02:56:58;7.70;;;5.82;;
9912;SDS011;41380;52.548;13.344;2022-08-21T02:59:25;8.13;;;5.80;;
9912;SDS011;41380;52.548;13.344;2022-08-21T03:01:52;9.23;;;6.30;;
9912;SDS011;41380;52.548;13.344;2022-08-21T03:04:20;7.18;;;6.00;;
9912;SDS011;41380;52.548;13.344;2022-08-21T03:06:48;9.85;;;6.05;;
9912;SDS011;41380;52.548;13.344;2022-08-21T03:09:15;11.57;;;6.78;;
9912;SDS011;41380;52.548;13.344;2022-08-21T03:11:42;7.43;;;6.05;;
9912;SDS011;41380;52.548;13.344;2022-08-21T03:14:09;8.85;;;6.57;;
9912;SDS011;41380;52.548;13.344;2022-08-21T03:16:36;11.30;;;7.35;;
9912;SDS011;41380;52.548;13.344;2022-08-21T03:19:03;12.57;;;7.35;;
9912;SDS011;41380;52.548;13.344;2022-08-21T03:21:30;12.68;;;7.15;;
9912;SDS011;41380;52.548;13.344;2022-08-21T03:23:59;13.20;;;7.40;;
9912;SDS011;41380;52.548;13.344;2022-08-21T03:26:26;11.43;;;7.47;;
9912;SDS011;41380;52.548;13.344;2022-08-21T03:28:53;10.57;;;7.60;;
9912;SDS011;41380;52.548;13.344;2022-08-21T03:31:21;11.07;;;7.20;;
9912;SDS011;41380;52.548;13.344;2022-08-21T03:33:48;10.55;;;7.50;;
9912;SDS011;41380;52.548;13.344;2022-08-21T03:36:15;12.48;;;7.18;;
9912;SDS011;41380;52.548;13.344;2022-08-21T03:38:43;11.65;;;7.05;;
9912;SDS011;41380;52.548;13.344;2022-08-21T03:41:11;11.20;;;6.78;;
9912;SDS011;41380;52.548;13.344;2022-08-21T03:43:38;10.40;;;6.57;;
9912;SDS011;41380;52.548;13.344;2022-08-21T03:46:05;14.52;;;6.85;;
9912;SDS011;41380;52.548;13.344;2022-08-21T03:48:34;11.55;;;6.22;;
9912;SDS011;41380;52.548;13.344;2022-08-21T03:51:02;11.00;;;7.25;;
9912;SDS011;41380;52.548;13.344;2022-08-21T03:53:30;9.45;;;5.88;;
9912;SDS011;41380;52.548;13.344;2022-08-21T03:55:57;9.55;;;6.28;;
9912;SDS011;41380;52.548;13.344;2022-08-21T03:58:26;11.00;;;6.13;;
9912;SDS011;41380;52.548;13.344;2022-08-21T04:00:55;11.73;;;6.15;;
9912;SDS011;41380;52.548;13.344;2022-08-21T04:03:24;9.25;;;5.72;;
9912;SDS011;41380;52.548;13.344;2022-08-21T04:05:51;9.63;;;6.15;;
9912;SDS011;41380;52.548;13.344;2022-08-21T04:08:19;6.85;;;5.80;;
9912;SDS011;41380;52.548;13.344;2022-08-21T04:10:47;14.63;;;6.88;;
9912;SDS011;41380;52.548;13.344;2022-08-21T04:13:17;11.15;;;6.10;;
9912;SDS011;41380;52.548;13.344;2022-08-21T04:15:45;7.72;;;5.28;;
9912;SDS011;41380;52.548;13.344;2022-08-21T04:18:13;10.35;;;6.22;;
9912;SDS011;41380;52.548;13.344;2022-08-21T04:20:43;8.70;;;6.00;;
9912;SDS011;41380;52.548;13.344;2022-08-21T04:23:12;10.40;;;6.50;;
9912;SDS011;41380;52.548;13.344;2022-08-21T04:25:39;9.63;;;6.57;;
9912;SDS011;41380;52.548;13.344;2022-08-21T04:28:06;10.98;;;6.80;;
9912;SDS011;41380;52.548;13.344;2022-08-21T04:30:32;7.57;;;6.47;;
9912;SDS011;41380;52.548;13.344;2022-08-21T04:33:01;8.98;;;6.25;;
9912;SDS011;41380;52.548;13.344;2022-08-21T04:35:28;11.18;;;5.95;;
9912;SDS011;41380;52.548;13.344;2022-08-21T04:37:56;10.30;;;6.15;;
9912;SDS011;41380;52.548;13.344;2022-08-21T04:40:23;7.55;;;5.25;;
9912;SDS011;41380;52.548;13.344;2022-08-21T04:42:54;7.70;;;5.30;;
9912;SDS011;41380;52.548;13.344;2022-08-21T04:45:24;8.77;;;6.18;;
9912;SDS011;41380;52.548;13.344;2022-08-21T04:47:54;10.65;;;5.65;;
9912;SDS011;41380;52.548;13.344;2022-08-21T04:50:24;7.18;;;5.30;;
9912;SDS011;41380;52.548;13.344;2022-08-21T04:52:55;11.00;;;4.85;;
9912;SDS011;41380;52.548;13.344;2022-08-21T04:55:22;8.57;;;5.15;;
9912;SDS011;41380;52.548;13.344;2022-08-21T04:57:52;8.02;;;4.65;;
9912;SDS011;41380;52.548;13.344;2022-08-21T05:00:23;7.75;;;4.35;;
9912;SDS011;41380;52.548;13.344;2022-08-21T05:02:51;8.45;;;4.63;;
9912;SDS011;41380;52.548;13.344;2022-08-21T05:05:21;7.78;;;3.60;;
9912;SDS011;41380;52.548;13.344;2022-08-21T05:07:50;6.40;;;4.88;;
9912;SDS011;41380;52.548;13.344;2022-08-21T05:10:19;8.40;;;3.80;;
9912;SDS011;41380;52.548;13.344;2022-08-21T05:12:48;6.55;;;4.35;;
9912;SDS011;41380;52.548;13.344;2022-08-21T05:15:15;8.60;;;4.38;;
9912;SDS011;41380;52.548;13.344;2022-08-21T05:17:42;6.78;;;4.10;;
9912;SDS011;41380;52.548;13.344;2022-08-21T05:20:10;6.63;;;3.58;;
9912;SDS011;41380;52.548;13.344;2022-08-21T05:22:39;5.57;;;3.97;;
9912;SDS011;41380;52.548;13.344;2022-08-21T05:25:06;7.43;;;3.95;;
9912;SDS011;41380;52.548;13.344;2022-08-21T05:27:35;6.78;;;3.88;;
9912;SDS011;41380;52.548;13.344;2022-08-21T05:30:02;8.65;;;4.25;;
9912;SDS011;41380;52.548;13.344;2022-08-21T05:32:30;8.32;;;4.47;;
9912;SDS011;41380;52.548;13.344;2022-08-21T05:34:57;7.03;;;4.20;;
9912;SDS011;41380;52.548;13.344;2022-08-21T05:37:25;9.90;;;5.35;;
9912;SDS011;41380;52.548;13.344;2022-08-21T05:39:53;11.73;;;4.70;;
9912;SDS011;41380;52.548;13.344;2022-08-21T05:42:21;8.07;;;4.82;;
9912;SDS011;41380;52.548;13.344;2022-08-21T05:44:48;11.63;;;4.88;;
9912;SDS011;41380;52.548;13.344;2022-08-21T05:47:15;8.45;;;5.20;;
9912;SDS011;41380;52.548;13.344;2022-08-21T05:49:42;7.07;;;4.78;;
9912;SDS011;41380;52.548;13.344;2022-08-21T05:52:09;9.55;;;4.75;;
9912;SDS011;41380;52.548;13.344;2022-08-21T05:54:36;9.07;;;4.55;;
9912;SDS011;41380;52.548;13.344;2022-08-21T05:57:05;13.93;;;5.07;;
9912;SDS011;41380;52.548;13.344;2022-08-21T05:59:33;9.35;;;4.95;;
9912;SDS011;41380;52.548;13.344;2022-08-21T06:02:01;11.38;;;5.60;;
9912;SDS011;41380;52.548;13.344;2022-08-21T06:04:28;12.40;;;5.57;;
9912;SDS011;41380;52.548;13.344;2022-08-21T06:06:55;12.32;;;5.10;;
9912;SDS011;41380;52.548;13.344;2022-08-21T06:09:22;10.27;;;5.07;;
9912;SDS011;41380;52.548;13.344;2022-08-21T06:11:49;10.48;;;4.85;;
9912;SDS011;41380;52.548;13.344;2022-08-21T06:14:17;9.73;;;4.82;;
9912;SDS011;41380;52.548;13.344;2022-08-21T06:16:44;8.20;;;4.65;;
9912;SDS011;41380;52.548;13.344;2022-08-21T06:19:11;8.90;;;5.10;;
9912;SDS011;41380;52.548;13.344;2022-08-21T06:21:38;10.05;;;4.55;;
9912;SDS011;41380;52.548;13.344;2022-08-21T06:24:05;9.27;;;4.43;;
9912;SDS011;41380;52.548;13.344;2022-08-21T06:26:33;9.68;;;4.80;;
9912;SDS011;41380;52.548;13.344;2022-08-21T06:28:59;10.40;;;4.55;;
9912;SDS011;41380;52.548;13.344;2022-08-21T06:31:28;10.38;;;4.18;;
9912;SDS011;41380;52.548;13.344;2022-08-21T06:33:55;10.05;;;4.78;;
9912;SDS011;41380;52.548;13.344;2022-08-21T06:36:23;8.38;;;4.05;;
9912;SDS011;41380;52.548;13.344;2022-08-21T06:38:50;6.80;;;4.00;;
9912;SDS011;41380;52.548;13.344;2022-08-21T06:41:17;6.40;;;3.35;;
9912;SDS011;41380;52.548;13.344;2022-08-21T06:43:44;9.88;;;3.80;;
9912;SDS011;41380;52.548;13.344;2022-08-21T06:46:11;6.70;;;3.75;;
9912;SDS011;41380;52.548;13.344;2022-08-21T06:48:39;8.55;;;3.88;;
9912;SDS011;41380;52.548;13.344;2022-08-21T06:51:06;7.88;;;3.97;;
9912;SDS011;41380;52.548;13.344;2022-08-21T06:53:33;7.30;;;3.85;;
9912;SDS011;41380;52.548;13.344;2022-08-21T06:56:00;7.63;;;4.72;;
9912;SDS011;41380;52.548;13.344;2022-08-21T06:58:28;10.05;;;4.28;;
9912;SDS011;41380;52.548;13.344;2022-08-21T07:00:56;8.85;;;4.38;;
9912;SDS011;41380;52.548;13.344;2022-08-21T07:03:23;9.27;;;4.63;;
9912;SDS011;41380;52.548;13.344;2022-08-21T07:05:54;8.68;;;4.95;;
9912;SDS011;41380;52.548;13.344;2022-08-21T07:08:22;10.27;;;5.05;;
9912;SDS011;41380;52.548;13.344;2022-08-21T07:10:50;8.63;;;4.80;;
9912;SDS011;41380;52.548;13.344;2022-08-21T07:13:18;7.72;;;4.47;;
9912;SDS011;41380;52.548;13.344;2022-08-21T07:15:45;12.20;;;5.35;;
9912;SDS011;41380;52.548;13.344;2022-08-21T07:18:12;11.25;;;4.88;;
9912;SDS011;41380;52.548;13.344;2022-08-21T07:20:39;8.63;;;5.35;;
9912;SDS011;41380;52.548;13.344;2022-08-21T07:23:08;8.40;;;5.03;;
9912;SDS011;41380;52.548;13.344;2022-08-21T07:25:38;8.45;;;4.43;;
9912;SDS011;41380;52.548;13.344;2022-08-21T07:28:05;8.10;;;4.10;;
9912;SDS011;41380;52.548;13.344;2022-08-21T07:30:32;8.10;;;4.00;;
9912;SDS011;41380;52.548;13.344;2022-08-21T07:32:59;7.63;;;4.38;;
9912;SDS011;41380;52.548;13.344;2022-08-21T07:35:26;8.60;;;3.58;;
9912;SDS011;41380;52.548;13.344;2022-08-21T07:37:54;6.72;;;3.05;;
9912;SDS011;41380;52.548;13.344;2022-08-21T07:40:22;6.85;;;3.47;;
9912;SDS011;41380;52.548;13.344;2022-08-21T07:42:49;8.48;;;3.33;;
9912;SDS011;41380;52.548;13.344;2022-08-21T07:45:17;9.20;;;3.22;;
9912;SDS011;41380;52.548;13.344;2022-08-21T07:47:46;6.40;;;3.20;;
9912;SDS011;41380;52.548;13.344;2022-08-21T07:50:13;6.60;;;3.50;;
9912;SDS011;41380;52.548;13.344;2022-08-21T07:52:41;5.82;;;2.70;;
9912;SDS011;41380;52.548;13.344;2022-08-21T07:55:10;5.32;;;2.70;;
9912;SDS011;41380;52.548;13.344;2022-08-21T07:57:40;4.53;;;2.70;;
9912;SDS011;41380;52.548;13.344;2022-08-21T08:00:08;5.70;;;2.50;;
9912;SDS011;41380;52.548;13.344;2022-08-21T08:02:37;6.25;;;3.10;;
9912;SDS011;41380;52.548;13.344;2022-08-21T08:05:06;5.82;;;2.42;;
9912;SDS011;41380;52.548;13.344;2022-08-21T08:07:36;5.57;;;2.45;;
9912;SDS011;41380;52.548;13.344;2022-08-21T08:10:04;4.68;;;2.33;;
9912;SDS011;41380;52.548;13.344;2022-08-21T08:12:33;4.63;;;2.13;;
9912;SDS011;41380;52.548;13.344;2022-08-21T08:15:02;5.75;;;2.53;;
9912;SDS011;41380;52.548;13.344;2022-08-21T08:17:30;5.10;;;2.28;;
9912;SDS011;41380;52.548;13.344;2022-08-21T08:19:58;5.20;;;2.20;;
9912;SDS011;41380;52.548;13.344;2022-08-21T08:22:26;6.93;;;3.08;;
9912;SDS011;41380;52.548;13.344;2022-08-21T08:24:53;3.90;;;2.45;;
9912;SDS011;41380;52.548;13.344;2022-08-21T08:27:20;3.78;;;2.30;;
9912;SDS011;41380;52.548;13.344;2022-08-21T08:29:47;4.18;;;2.30;;
9912;SDS011;41380;52.548;13.344;2022-08-21T08:32:16;4.20;;;2.33;;
9912;SDS011;41380;52.548;13.344;2022-08-21T08:34:44;4.57;;;2.17;;
9912;SDS011;41380;52.548;13.344;2022-08-21T08:37:11;7.40;;;2.95;;
9912;SDS011;41380;52.548;13.344;2022-08-21T08:39:39;5.25;;;2.47;;
9912;SDS011;41380;52.548;13.344;2022-08-21T08:42:07;5.18;;;2.10;;
9912;SDS011;41380;52.548;13.344;2022-08-21T08:44:37;2.78;;;2.00;;
9912;SDS011;41380;52.548;13.344;2022-08-21T08:47:04;4.53;;;2.10;;
9912;SDS011;41380;52.548;13.344;2022-08-21T08:49:35;4.03;;;2.05;;
9912;SDS011;41380;52.548;13.344;2022-08-21T08:52:05;4.00;;;2.60;;
9912;SDS011;41380;52.548;13.344;2022-08-21T08:54:44;4.32;;;2.33;;
9912;SDS011;41380;52.548;13.344;2022-08-21T08:57:15;5.85;;;2.40;;
9912;SDS011;41380;52.548;13.344;2022-08-21T08:59:45;5.63;;;2.28;;
9912;SDS011;41380;52.548;13.344;2022-08-21T09:02:17;5.97;;;3.17;;
9912;SDS011;41380;52.548;13.344;2022-08-21T09:04:58;2.55;;;1.88;;
9912;SDS011;41380;52.548;13.344;2022-08-21T09:07:35;8.23;;;2.80;;
9912;SDS011;41380;52.548;13.344;2022-08-21T09:10:33;3.38;;;2.17;;
9912;SDS011;41380;52.548;13.344;2022-08-21T09:13:24;2.38;;;1.92;;
9912;SDS011;41380;52.548;13.344;2022-08-21T09:16:23;3.60;;;2.70;;
9912;SDS011;41380;52.548;13.344;2022-08-21T09:18:59;7.03;;;2.63;;
9912;SDS011;41380;52.548;13.344;2022-08-21T09:21:49;3.08;;;1.95;;
9912;SDS011;41380;52.548;13.344;2022-08-21T09:24:25;4.15;;;2.17;;
9912;SDS011;41380;52.548;13.344;2022-08-21T09:27:02;5.15;;;2.58;;
9912;SDS011;41380;52.548;13.344;2022-08-21T09:32:21;4.07;;;2.67;;
9912;SDS011;41380;52.548;13.344;2022-08-21T09:34:55;6.55;;;2.58;;
9912;SDS011;41380;52.548;13.344;2022-08-21T09:37:35;5.88;;;2.38;;
9912;SDS011;41380;52.548;13.344;2022-08-21T09:40:17;4.38;;;2.60;;
9912;SDS011;41380;52.548;13.344;2022-08-21T09:42:58;6.10;;;2.33;;
9912;SDS011;41380;52.548;13.344;2022-08-21T09:45:27;4.18;;;2.78;;
9912;SDS011;41380;52.548;13.344;2022-08-21T09:47:55;3.95;;;2.42;;
9912;SDS011;41380;52.548;13.344;2022-08-21T09:50:44;7.22;;;2.97;;
9912;SDS011;41380;52.548;13.344;2022-08-21T09:53:18;4.75;;;3.40;;
9912;SDS011;41380;52.548;13.344;2022-08-21T09:55:49;4.03;;;2.05;;
9912;SDS011;41380;52.548;13.344;2022-08-21T09:58:36;4.93;;;2.15;;
9912;SDS011;41380;52.548;13.344;2022-08-21T10:01:05;3.20;;;2.30;;
9912;SDS011;41380;52.548;13.344;2022-08-21T10:03:40;4.20;;;2.60;;
9912;SDS011;41380;52.548;13.344;2022-08-21T10:06:08;3.70;;;2.10;;
9912;SDS011;41380;52.548;13.344;2022-08-21T10:08:40;3.80;;;2.28;;
9912;SDS011;41380;52.548;13.344;2022-08-21T10:11:08;3.00;;;2.10;;
9912;SDS011;41380;52.548;13.344;2022-08-21T10:13:41;6.15;;;2.60;;
9912;SDS011;41380;52.548;13.344;2022-08-21T10:16:22;5.18;;;2.42;;
9912;SDS011;41380;52.548;13.344;2022-08-21T10:19:00;6.32;;;2.53;;
9912;SDS011;41380;52.548;13.344;2022-08-21T10:21:35;3.83;;;1.92;;
9912;SDS011;41380;52.548;13.344;2022-08-21T10:24:11;4.50;;;2.42;;
9912;SDS011;41380;52.548;13.344;2022-08-21T10:26:46;7.22;;;2.17;;
9912;SDS011;41380;52.548;13.344;2022-08-21T10:29:24;3.28;;;1.90;;
9912;SDS011;41380;52.548;13.344;2022-08-21T10:32:14;4.15;;;2.20;;
9912;SDS011;41380;52.548;13.344;2022-08-21T10:34:55;2.78;;;2.05;;
9912;SDS011;41380;52.548;13.344;2022-08-21T10:37:31;3.90;;;2.63;;
9912;SDS011;41380;52.548;13.344;2022-08-21T10:40:12;3.17;;;2.20;;
9912;SDS011;41380;52.548;13.344;2022-08-21T10:42:48;5.05;;;2.72;;
9912;SDS011;41380;52.548;13.344;2022-08-21T10:45:23;5.28;;;2.70;;
9912;SDS011;41380;52.548;13.344;2022-08-21T10:48:00;3.80;;;2.72;;
9912;SDS011;41380;52.548;13.344;2022-08-21T10:50:31;4.80;;;2.55;;
9912;SDS011;41380;52.548;13.344;2022-08-21T10:53:09;5.40;;;2.90;;
9912;SDS011;41380;52.548;13.344;2022-08-21T10:55:48;3.42;;;2.63;;
9912;SDS011;41380;52.548;13.344;2022-08-21T10:58:22;2.67;;;2.40;;
9912;SDS011;41380;52.548;13.344;2022-08-21T11:00:55;3.63;;;2.60;;
9912;SDS011;41380;52.548;13.344;2022-08-21T11:03:29;3.53;;;2.60;;
9912;SDS011;41380;52.548;13.344;2022-08-21T11:06:00;4.07;;;2.75;;
9912;SDS011;41380;52.548;13.344;2022-08-21T11:08:33;4.05;;;2.60;;
9912;SDS011;41380;52.548;13.344;2022-08-21T11:11:05;5.45;;;2.80;;
9912;SDS011;41380;52.548;13.344;2022-08-21T11:13:38;9.30;;;2.60;;
9912;SDS011;41380;52.548;13.344;2022-08-21T11:16:10;3.85;;;2.45;;
9912;SDS011;41380;52.548;13.344;2022-08-21T11:18:43;5.07;;;2.08;;
9912;SDS011;41380;52.548;13.344;2022-08-21T11:21:21;3.85;;;2.25;;
9912;SDS011;41380;52.548;13.344;2022-08-21T11:23:58;3.17;;;2.05;;
9912;SDS011;41380;52.548;13.344;2022-08-21T11:26:32;2.35;;;1.70;;
9912;SDS011;41380;52.548;13.344;2022-08-21T11:29:06;2.72;;;1.92;;
9912;SDS011;41380;52.548;13.344;2022-08-21T11:31:40;2.45;;;1.55;;
9912;SDS011;41380;52.548;13.344;2022-08-21T11:34:19;2.65;;;1.77;;
9912;SDS011;41380;52.548;13.344;2022-08-21T11:36:55;2.30;;;1.88;;
9912;SDS011;41380;52.548;13.344;2022-08-21T11:39:30;3.35;;;1.77;;
9912;SDS011;41380;52.548;13.344;2022-08-21T11:42:07;4.88;;;2.03;;
9912;SDS011;41380;52.548;13.344;2022-08-21T11:44:46;2.35;;;1.50;;
9912;SDS011;41380;52.548;13.344;2022-08-21T11:47:19;4.72;;;1.90;;
9912;SDS011;41380;52.548;13.344;2022-08-21T11:49:57;3.45;;;1.63;;
9912;SDS011;41380;52.548;13.344;2022-08-21T11:52:35;1.92;;;1.63;;
9912;SDS011;41380;52.548;13.344;2022-08-21T11:55:06;3.03;;;2.10;;
9912;SDS011;41380;52.548;13.344;2022-08-21T11:57:39;2.30;;;1.50;;
9912;SDS011;41380;52.548;13.344;2022-08-21T12:00:13;4.88;;;1.70;;
9912;SDS011;41380;52.548;13.344;2022-08-21T12:02:46;1.73;;;1.40;;
9912;SDS011;41380;52.548;13.344;2022-08-21T12:05:25;3.70;;;2.20;;
9912;SDS011;41380;52.548;13.344;2022-08-21T12:08:00;2.38;;;1.70;;
9912;SDS011;41380;52.548;13.344;2022-08-21T12:10:33;2.28;;;1.70;;
9912;SDS011;41380;52.548;13.344;2022-08-21T12:13:07;2.60;;;1.83;;
9912;SDS011;41380;52.548;13.344;2022-08-21T12:15:37;3.45;;;2.00;;
9912;SDS011;41380;52.548;13.344;2022-08-21T12:18:05;3.08;;;2.05;;
9912;SDS011;41380;52.548;13.344;2022-08-21T12:20:57;3.50;;;1.98;;
9912;SDS011;41380;52.548;13.344;2022-08-21T12:23:30;2.15;;;1.70;;
9912;SDS011;41380;52.548;13.344;2022-08-21T12:26:00;3.65;;;2.40;;
9912;SDS011;41380;52.548;13.344;2022-08-21T12:28:31;4.95;;;2.35;;
9912;SDS011;41380;52.548;13.344;2022-08-21T12:30:59;3.50;;;1.90;;
9912;SDS011;41380;52.548;13.344;2022-08-21T12:33:27;2.75;;;1.73;;
9912;SDS011;41380;52.548;13.344;2022-08-21T12:36:02;2.63;;;2.00;;
9912;SDS011;41380;52.548;13.344;2022-08-21T12:38:33;3.28;;;1.90;;
9912;SDS011;41380;52.548;13.344;2022-08-21T12:41:15;2.33;;;1.60;;
9912;SDS011;41380;52.548;13.344;2022-08-21T12:43:50;3.75;;;2.00;;
9912;SDS011;41380;52.548;13.344;2022-08-21T12:46:22;2.17;;;1.60;;
9912;SDS011;41380;52.548;13.344;2022-08-21T12:48:54;3.17;;;1.90;;
9912;SDS011;41380;52.548;13.344;2022-08-21T12:51:32;2.83;;;1.83;;
9912;SDS011;41380;52.548;13.344;2022-08-21T12:54:08;1.65;;;1.50;;
9912;SDS011;41380;52.548;13.344;2022-08-21T12:56:35;2.83;;;2.03;;
9912;SDS011;41380;52.548;13.344;2022-08-21T12:59:07;3.92;;;2.05;;
9912;SDS011;41380;52.548;13.344;2022-08-21T13:01:39;2.63;;;1.92;;
9912;SDS011;41380;52.548;13.344;2022-08-21T13:04:16;3.72;;;1.85;;
9912;SDS011;41380;52.548;13.344;2022-08-21T13:06:45;3.55;;;2.05;;
9912;SDS011;41380;52.548;13.344;2022-08-21T13:09:16;3.53;;;1.90;;
9912;SDS011;41380;52.548;13.344;2022-08-21T13:11:46;4.68;;;2.15;;
9912;SDS011;41380;52.548;13.344;2022-08-21T13:14:17;3.90;;;2.35;;
9912;SDS011;41380;52.548;13.344;2022-08-21T13:16:52;3.55;;;2.35;;
9912;SDS011;41380;52.548;13.344;2022-08-21T13:19:21;2.35;;;1.70;;
9912;SDS011;41380;52.548;13.344;2022-08-21T13:21:48;3.50;;;1.98;;
9912;SDS011;41380;52.548;13.344;2022-08-21T13:24:19;3.03;;;2.08;;
9912;SDS011;41380;52.548;13.344;2022-08-21T13:26:49;3.28;;;1.98;;
9912;SDS011;41380;52.548;13.344;2022-08-21T13:29:19;4.72;;;2.58;;
9912;SDS011;41380;52.548;13.344;2022-08-21T13:31:49;3.05;;;2.05;;
9912;SDS011;41380;52.548;13.344;2022-08-21T13:34:18;4.43;;;2.53;;
9912;SDS011;41380;52.548;13.344;2022-08-21T13:36:47;5.30;;;2.13;;
9912;SDS011;41380;52.548;13.344;2022-08-21T13:39:18;5.85;;;2.65;;
9912;SDS011;41380;52.548;13.344;2022-08-21T13:41:46;6.22;;;3.03;;
9912;SDS011;41380;52.548;13.344;2022-08-21T13:44:17;5.60;;;2.78;;
9912;SDS011;41380;52.548;13.344;2022-08-21T13:46:51;5.22;;;2.50;;
9912;SDS011;41380;52.548;13.344;2022-08-21T13:49:23;5.50;;;2.38;;
9912;SDS011;41380;52.548;13.344;2022-08-21T13:51:56;6.53;;;2.47;;
9912;SDS011;41380;52.548;13.344;2022-08-21T13:54:24;6.93;;;2.22;;
9912;SDS011;41380;52.548;13.344;2022-08-21T13:56:53;5.20;;;2.40;;
9912;SDS011;41380;52.548;13.344;2022-08-21T13:59:26;4.20;;;2.35;;
9912;SDS011;41380;52.548;13.344;2022-08-21T14:01:59;3.75;;;2.30;;
9912;SDS011;41380;52.548;13.344;2022-08-21T14:04:35;3.65;;;2.30;;
9912;SDS011;41380;52.548;13.344;2022-08-21T14:07:13;4.45;;;2.38;;
9912;SDS011;41380;52.548;13.344;2022-08-21T14:09:43;5.40;;;2.30;;
9912;SDS011;41380;52.548;13.344;2022-08-21T14:12:12;5.30;;;2.15;;
9912;SDS011;41380;52.548;13.344;2022-08-21T14:14:43;4.22;;;2.45;;
9912;SDS011;41380;52.548;13.344;2022-08-21T14:17:12;3.63;;;2.30;;
9912;SDS011;41380;52.548;13.344;2022-08-21T14:19:53;4.15;;;2.30;;
9912;SDS011;41380;52.548;13.344;2022-08-21T14:22:28;3.75;;;2.35;;
9912;SDS011;41380;52.548;13.344;2022-08-21T14:25:01;5.03;;;2.67;;
9912;SDS011;41380;52.548;13.344;2022-08-21T14:27:31;4.40;;;2.33;;
9912;SDS011;41380;52.548;13.344;2022-08-21T14:30:04;3.80;;;2.30;;
9912;SDS011;41380;52.548;13.344;2022-08-21T14:32:38;4.95;;;2.60;;
9912;SDS011;41380;52.548;13.344;2022-08-21T14:35:07;5.20;;;2.25;;
9912;SDS011;41380;52.548;13.344;2022-08-21T14:37:36;4.30;;;2.33;;
9912;SDS011;41380;52.548;13.344;2022-08-21T14:40:03;4.95;;;2.53;;
9912;SDS011;41380;52.548;13.344;2022-08-21T14:42:31;4.15;;;2.40;;
9912;SDS011;41380;52.548;13.344;2022-08-21T14:45:00;5.13;;;3.05;;
9912;SDS011;41380;52.548;13.344;2022-08-21T14:47:40;5.10;;;2.75;;
9912;SDS011;41380;52.548;13.344;2022-08-21T14:50:09;4.82;;;2.63;;
9912;SDS011;41380;52.548;13.344;2022-08-21T14:52:36;4.80;;;2.88;;
9912;SDS011;41380;52.548;13.344;2022-08-21T14:55:05;5.47;;;2.50;;
9912;SDS011;41380;52.548;13.344;2022-08-21T14:57:35;6.43;;;2.38;;
9912;SDS011;41380;52.548;13.344;2022-08-21T15:00:05;4.75;;;2.40;;
9912;SDS011;41380;52.548;13.344;2022-08-21T15:02:34;4.32;;;2.65;;
9912;SDS011;41380;52.548;13.344;2022-08-21T15:05:01;4.60;;;2.38;;
9912;SDS011;41380;52.548;13.344;2022-08-21T15:07:28;3.72;;;2.60;;